Avondale, Kentucky
Current Conditions -  °F | °C
As of 5:53 PM on Monday 20 Oct 2014 (Local Time) from KPAH Reporting Station
Few Clouds Few Clouds  
Wind Chill: 21°   Ceiling: Unl
Heat Index: 21°   Visibility: 10mi
Dew Point: 12°   Wind: 7mph
Humidity: 58%   Direction: 230°SW
Pressure: 29.93"   Gusts: NA
Location:  37.0331°N, 88.716°W
Report Text: KPAH 202253Z 23006KT 10SM FEW065 21/12 A2993 RMK AO2 SLP133 T02060122
Loading
Personal Weather Stations






























Interactive Weather Map
Tropical Storm Tracking
New forecast layout! Learn more

10-Day Weather Forecast

Advertisements
Track Severe Weather on mobile